createdAt,value
2019-01-02T03:05:08.927Z,2.00
2019-01-02T03:07:37.748Z,2.70
2019-01-02T03:10:11.992Z,2.27
2019-01-02T03:12:40.884Z,2.40
2019-01-02T03:15:11.245Z,2.53
2019-01-02T03:17:39.723Z,2.40
2019-01-02T03:20:10.696Z,2.70
2019-01-02T03:22:39.520Z,2.20
2019-01-02T03:25:10.348Z,1.80
2019-01-02T03:27:39.200Z,2.20
2019-01-02T03:30:13.952Z,2.60
2019-01-02T03:32:42.844Z,3.08
2019-01-02T03:35:11.725Z,2.98
2019-01-02T03:37:40.173Z,3.12
2019-01-02T03:40:10.932Z,2.72
2019-01-02T03:42:39.447Z,2.40
2019-01-02T03:45:14.004Z,2.80
2019-01-02T03:47:42.438Z,3.22
2019-01-02T03:50:16.549Z,3.08
2019-01-02T03:52:44.994Z,3.25
2019-01-02T03:55:13.408Z,3.50
2019-01-02T11:45:27.037Z,4.93
2019-01-02T11:47:55.477Z,4.10
2019-01-02T11:50:23.938Z,4.63
2019-01-02T11:52:52.377Z,4.20
2019-01-02T11:55:20.882Z,4.23
2019-01-02T11:57:49.395Z,4.30
2019-01-02T12:00:17.983Z,4.80
2019-01-02T12:02:46.400Z,3.67
2019-01-02T12:05:15.033Z,3.70
2019-01-02T12:07:43.550Z,4.53
2019-01-02T12:10:12.586Z,3.97
2019-01-02T12:12:41.092Z,4.20
2019-01-02T12:15:10.267Z,4.97
2019-01-02T12:17:38.893Z,4.25
2019-01-02T12:20:09.506Z,4.90
2019-01-02T12:22:37.913Z,4.97
2019-01-02T12:25:06.861Z,4.13
2019-01-02T12:27:35.273Z,4.83
2019-01-02T12:30:05.898Z,5.17
2019-01-02T12:32:34.351Z,4.33
2019-01-02T12:35:02.917Z,4.60
2019-01-02T12:37:31.382Z,4.28
2019-01-02T12:39:59.818Z,4.92
2019-01-02T12:42:28.252Z,4.80
2019-01-02T12:44:56.669Z,4.67
2019-01-02T12:47:25.109Z,4.53
2019-01-02T12:49:55.104Z,4.55
2019-01-02T12:52:23.534Z,4.42
2019-01-02T12:59:47.314Z,3.80
2019-01-02T13:02:35.380Z,3.80
2019-01-02T13:05:29.379Z,3.87
2019-01-02T13:08:09.465Z,4.03
2019-01-02T13:10:40.966Z,4.07
2019-01-02T13:13:28.871Z,4.77
2019-01-02T13:16:14.793Z,5.23
2019-01-02T13:19:04.230Z,4.70
2019-01-02T13:21:44.683Z,4.43
2019-01-02T13:24:25.348Z,4.97
2019-01-02T13:26:56.894Z,4.03
2019-01-02T13:29:43.085Z,5.40
2019-01-02T13:32:17.569Z,4.40
2019-01-02T13:34:58.127Z,4.70
2019-01-02T13:37:38.680Z,4.50
2019-01-02T13:40:37.678Z,4.70
2019-01-02T14:15:27.043Z,5.90
2019-01-02T14:17:55.462Z,4.57
2019-01-02T14:20:23.905Z,4.23
2019-01-02T14:22:52.339Z,4.23
2019-01-02T14:25:20.856Z,3.77
2019-01-02T14:27:49.294Z,3.20
2019-01-02T14:30:17.739Z,5.10
2019-01-02T14:32:46.194Z,3.60
2019-01-02T14:35:14.618Z,3.60
2019-01-02T14:37:43.041Z,3.50
2019-01-02T14:40:11.621Z,4.00
2019-01-02T14:42:40.057Z,4.10
2019-01-02T14:45:08.664Z,4.07
2019-01-02T14:47:37.174Z,3.20
2019-01-02T14:50:08.031Z,4.43
2019-01-02T14:52:36.544Z,4.22
2019-01-02T14:55:05.307Z,4.83
2019-01-02T14:57:33.771Z,5.00
2019-01-02T15:00:02.320Z,4.80
2019-01-02T15:02:30.796Z,4.95
2019-01-02T15:04:59.231Z,5.12
2019-01-02T15:07:27.772Z,4.83
2019-01-02T15:09:57.835Z,4.80
2019-01-02T15:12:26.361Z,5.05
2019-01-02T15:14:54.763Z,4.40
2019-01-02T15:17:23.220Z,4.15
2019-01-02T15:19:51.656Z,4.70
2019-01-02T15:22:20.124Z,4.87
2019-01-02T15:24:49.591Z,3.70
2019-01-02T15:27:18.265Z,4.50
2019-01-02T15:29:46.748Z,4.45
2019-01-02T15:32:15.219Z,4.42
2019-01-02T15:34:43.650Z,4.25
2019-01-02T15:37:12.094Z,4.60
2019-01-02T15:39:40.566Z,4.80
2019-01-02T15:42:08.998Z,4.95
2019-01-02T15:44:37.415Z,4.50
2019-01-02T15:47:08.637Z,4.70
2019-01-02T15:49:36.107Z,4.33
2019-01-02T15:52:04.671Z,3.77
2019-01-02T15:54:33.122Z,3.70
2019-01-02T15:59:29.258Z,4.28
2019-01-02T16:01:57.774Z,3.80
2019-01-02T16:04:26.359Z,3.90
2019-01-02T16:06:54.794Z,4.00
2019-01-02T16:09:23.369Z,3.83
2019-01-02T16:11:51.773Z,4.10
2019-01-02T16:14:20.233Z,4.85
2019-01-02T16:16:48.671Z,4.58
2019-01-02T16:19:17.170Z,4.15
2019-01-02T16:21:45.617Z,4.63
2019-01-02T16:24:14.048Z,4.83
2019-01-02T16:26:42.496Z,4.60
2019-01-02T16:29:10.917Z,5.10
2019-01-02T16:31:39.402Z,4.70
2019-01-02T16:34:07.889Z,4.33
2019-01-02T16:36:36.351Z,4.85
2019-01-02T16:39:07.451Z,5.12
2019-01-02T16:41:35.896Z,4.75
2019-01-02T16:44:04.380Z,4.83
2019-01-02T16:46:32.825Z,5.10
2019-01-02T16:49:01.276Z,5.10
2019-01-02T16:51:29.814Z,4.80
2019-01-02T16:53:58.232Z,4.80
2019-01-02T16:56:26.677Z,5.12
2019-01-02T16:58:55.195Z,5.40
2019-01-02T17:01:23.644Z,4.85
2019-01-02T17:03:52.221Z,5.05
2019-01-02T17:06:20.721Z,4.53
2019-01-02T17:08:49.241Z,4.72
2019-01-02T17:11:17.695Z,4.75
2019-01-02T17:13:46.160Z,4.03
2019-01-02T17:16:14.575Z,4.10
2019-01-02T17:18:43.011Z,4.33
2019-01-02T17:21:11.434Z,3.90
2019-01-02T17:23:39.962Z,4.40
2019-01-02T17:26:08.532Z,4.20
2019-01-02T17:28:36.991Z,4.42
2019-01-02T17:31:05.428Z,4.30
2019-01-02T17:33:33.952Z,4.12
2019-01-02T17:36:02.366Z,3.90
2019-01-02T17:38:30.840Z,4.27
2019-01-02T18:08:03.834Z,4.90
2019-01-02T18:10:32.326Z,4.75
2019-01-02T18:13:00.781Z,4.87
2019-01-02T18:15:29.270Z,5.12
2019-01-02T18:20:25.397Z,4.17
2019-01-02T18:22:53.811Z,4.45
2019-01-02T18:25:22.342Z,4.30
2019-01-02T18:27:50.781Z,4.87
2019-01-02T18:30:19.238Z,5.30
2019-01-02T18:32:47.713Z,5.33
2019-01-02T18:35:16.168Z,5.37
2019-01-02T18:37:44.587Z,6.00
2019-01-02T18:40:13.090Z,5.17
2019-01-02T18:42:41.530Z,4.80
2019-01-02T18:45:10.059Z,4.83
2019-01-02T18:47:38.550Z,4.70
2019-01-02T18:50:08.655Z,5.87
2019-01-02T18:52:37.183Z,4.70
2019-01-02T18:55:06.111Z,3.93
2019-01-02T18:57:34.563Z,5.63
2019-01-02T19:00:06.283Z,4.67
2019-01-02T19:02:33.307Z,5.27
2019-01-02T19:05:01.864Z,6.23
2019-01-02T19:07:30.374Z,5.60
2019-01-02T19:09:58.859Z,4.83
2019-01-02T19:12:27.370Z,4.90
2019-01-02T19:14:55.814Z,5.37
2019-01-02T19:17:24.413Z,6.10
2019-01-02T19:19:52.942Z,6.23
2019-01-02T19:22:21.401Z,8.43
2019-01-02T19:24:49.837Z,9.10
2019-01-02T19:27:18.302Z,14.30
2019-01-02T19:29:46.790Z,13.23
2019-01-02T19:32:15.278Z,13.50
2019-01-02T19:34:43.734Z,13.80
2019-01-02T19:37:12.206Z,10.70
2019-01-02T19:39:40.700Z,8.00
2019-01-02T19:42:09.177Z,6.27
2019-01-02T19:44:37.616Z,6.63
2019-01-02T19:47:06.056Z,7.33
2019-01-02T19:49:34.519Z,10.50
2019-01-02T19:52:02.982Z,14.43
2019-01-02T19:54:31.492Z,6.77
2019-01-02T19:56:59.930Z,8.40
2019-01-02T19:59:28.424Z,7.80
2019-01-02T20:01:56.877Z,7.53
2019-01-02T20:04:25.396Z,5.10
2019-01-02T20:06:53.830Z,5.70
2019-01-02T20:09:22.299Z,6.85
2019-01-02T20:11:50.813Z,7.63
2019-01-02T20:14:19.319Z,7.77
2019-01-02T20:16:47.815Z,6.17
2019-01-02T20:19:16.271Z,6.83
2019-01-02T20:21:44.805Z,6.23
2019-01-02T20:24:13.325Z,5.60
2019-01-02T20:26:41.865Z,7.03
2019-01-02T20:29:10.286Z,7.53
2019-01-02T20:31:38.817Z,7.20
2019-01-02T20:34:07.273Z,7.50
2019-01-02T20:36:40.676Z,7.37
2019-01-02T20:39:06.949Z,8.33
2019-01-02T20:41:35.544Z,7.83
2019-01-02T20:44:03.993Z,7.30
2019-01-02T20:46:32.462Z,5.80
2019-01-02T20:49:00.957Z,6.13
2019-01-02T20:51:31.033Z,6.23
2019-01-02T20:53:59.508Z,6.63
2019-01-02T20:56:28.032Z,7.10
2019-01-02T20:58:56.576Z,16.23
2019-01-02T21:01:25.110Z,21.87
2019-01-02T21:03:53.568Z,10.73
2019-01-02T21:06:22.062Z,8.20
2019-01-02T21:08:50.485Z,6.43
2019-01-02T21:11:18.955Z,6.50
2019-01-02T21:13:47.470Z,6.20
2019-01-02T21:16:16.018Z,5.60
2019-01-02T21:18:44.524Z,4.73
2019-01-02T21:21:13.042Z,5.40
2019-01-02T21:23:41.470Z,4.87
2019-01-02T21:26:09.983Z,5.00
2019-01-02T21:28:38.460Z,3.70
2019-01-02T21:31:06.938Z,3.53
2019-01-02T21:33:35.425Z,3.87
2019-01-02T21:36:03.962Z,2.00
2019-01-02T21:38:33.947Z,3.00
2019-01-02T21:41:02.387Z,2.30
2019-01-02T21:43:30.929Z,2.53
2019-01-02T21:45:59.366Z,2.63
2019-01-02T21:48:27.804Z,2.83
2019-01-02T21:50:56.411Z,2.27
2019-01-02T21:53:24.937Z,2.77
2019-01-02T21:55:53.429Z,2.20
2019-01-02T21:58:21.940Z,2.90
2019-01-02T22:00:50.361Z,3.10
2019-01-02T22:03:18.822Z,3.17
2019-01-02T22:05:47.318Z,2.73
2019-01-02T22:08:15.775Z,3.17
2019-01-02T22:10:44.265Z,2.67
2019-01-02T22:13:12.762Z,2.80
2019-01-02T22:15:41.215Z,2.73
2019-01-02T22:18:09.703Z,2.97
2019-01-02T22:20:38.190Z,3.27
2019-01-02T22:23:06.616Z,3.77
2019-01-02T22:25:35.074Z,3.77
2019-01-02T22:28:03.522Z,3.17
2019-01-02T22:30:31.953Z,3.12
2019-01-02T22:33:00.385Z,3.73
2019-01-02T22:35:28.916Z,3.95
2019-01-02T22:37:57.422Z,3.90
2019-01-02T22:40:25.878Z,11.68
2019-01-02T22:42:54.402Z,14.80
2019-01-02T22:45:22.828Z,10.33
2019-01-02T22:47:51.288Z,7.10
2019-01-02T22:50:19.853Z,5.07
2019-01-02T22:52:48.315Z,4.70
2019-01-02T22:55:16.827Z,5.40
2019-01-02T22:57:45.283Z,5.47
2019-01-02T23:00:22.544Z,5.53
2019-01-02T23:02:52.703Z,5.40
2019-01-02T23:05:22.849Z,4.50
2019-01-02T23:07:52.977Z,5.50
2019-01-02T23:10:23.077Z,5.30
2019-01-02T23:12:53.196Z,5.60
2019-01-02T23:15:24.221Z,4.70
2019-01-02T23:18:03.589Z,4.77
2019-01-02T23:20:39.586Z,4.60
2019-01-02T23:23:27.427Z,4.40
2019-01-02T23:26:03.388Z,5.60
2019-01-02T23:28:36.433Z,4.00
2019-01-02T23:31:24.628Z,4.23
2019-01-02T23:33:57.705Z,3.87
2019-01-02T23:36:27.800Z,3.70
2019-01-02T23:39:00.885Z,3.80
2019-01-02T23:41:30.957Z,4.60
2019-01-02T23:44:06.918Z,4.83
2019-01-02T23:46:53.006Z,4.30
2019-01-02T23:49:38.955Z,4.13
2019-01-02T23:52:25.301Z,4.40
2019-01-02T23:55:11.718Z,3.80
2019-01-02T23:57:41.788Z,4.83
